sensor_id;sensor_type;location;lat;lon;timestamp;P1;durP1;ratioP1;P2;durP2;ratioP2
9372;SDS011;10838;52.350;9.790;2023-04-25T00:02:19;10.17;;;5.00;;
9372;SDS011;10838;52.350;9.790;2023-04-25T00:04:45;8.87;;;4.30;;
9372;SDS011;10838;52.350;9.790;2023-04-25T00:07:15;7.93;;;4.40;;
9372;SDS011;10838;52.350;9.790;2023-04-25T00:09:41;8.77;;;4.40;;
9372;SDS011;10838;52.350;9.790;2023-04-25T00:12:08;10.33;;;4.30;;
9372;SDS011;10838;52.350;9.790;2023-04-25T00:14:35;14.43;;;4.57;;
9372;SDS011;10838;52.350;9.790;2023-04-25T00:17:01;9.63;;;4.17;;
9372;SDS011;10838;52.350;9.790;2023-04-25T00:19:29;11.20;;;4.40;;
9372;SDS011;10838;52.350;9.790;2023-04-25T00:21:55;6.43;;;3.60;;
9372;SDS011;10838;52.350;9.790;2023-04-25T00:24:23;6.33;;;4.13;;
9372;SDS011;10838;52.350;9.790;2023-04-25T00:26:50;14.30;;;4.50;;
9372;SDS011;10838;52.350;9.790;2023-04-25T00:29:16;8.93;;;4.30;;
9372;SDS011;10838;52.350;9.790;2023-04-25T00:31:43;8.97;;;3.87;;
9372;SDS011;10838;52.350;9.790;2023-04-25T00:34:09;10.07;;;3.83;;
9372;SDS011;10838;52.350;9.790;2023-04-25T00:36:36;8.03;;;4.20;;
9372;SDS011;10838;52.350;9.790;2023-04-25T00:39:03;10.70;;;4.13;;
9372;SDS011;10838;52.350;9.790;2023-04-25T00:41:31;7.97;;;3.90;;
9372;SDS011;10838;52.350;9.790;2023-04-25T00:43:59;10.27;;;4.17;;
9372;SDS011;10838;52.350;9.790;2023-04-25T00:46:26;9.70;;;3.47;;
9372;SDS011;10838;52.350;9.790;2023-04-25T00:48:53;9.10;;;4.50;;
9372;SDS011;10838;52.350;9.790;2023-04-25T00:51:20;9.77;;;3.93;;
9372;SDS011;10838;52.350;9.790;2023-04-25T00:53:47;12.63;;;4.37;;
9372;SDS011;10838;52.350;9.790;2023-04-25T00:56:15;9.83;;;4.17;;
9372;SDS011;10838;52.350;9.790;2023-04-25T00:58:43;7.33;;;4.43;;
9372;SDS011;10838;52.350;9.790;2023-04-25T01:01:10;8.90;;;4.03;;
9372;SDS011;10838;52.350;9.790;2023-04-25T01:03:38;14.63;;;5.33;;
9372;SDS011;10838;52.350;9.790;2023-04-25T01:06:06;10.93;;;4.63;;
9372;SDS011;10838;52.350;9.790;2023-04-25T01:08:33;13.20;;;4.73;;
9372;SDS011;10838;52.350;9.790;2023-04-25T01:11:00;11.27;;;4.40;;
9372;SDS011;10838;52.350;9.790;2023-04-25T01:13:27;13.33;;;4.90;;
9372;SDS011;10838;52.350;9.790;2023-04-25T01:15:55;10.33;;;4.27;;
9372;SDS011;10838;52.350;9.790;2023-04-25T01:18:22;14.37;;;5.00;;
9372;SDS011;10838;52.350;9.790;2023-04-25T01:20:49;9.53;;;4.40;;
9372;SDS011;10838;52.350;9.790;2023-04-25T01:23:18;7.17;;;4.47;;
9372;SDS011;10838;52.350;9.790;2023-04-25T01:25:46;6.87;;;4.67;;
9372;SDS011;10838;52.350;9.790;2023-04-25T01:28:13;14.67;;;5.63;;
9372;SDS011;10838;52.350;9.790;2023-04-25T01:30:40;14.90;;;5.23;;
9372;SDS011;10838;52.350;9.790;2023-04-25T01:33:07;10.73;;;5.50;;
9372;SDS011;10838;52.350;9.790;2023-04-25T01:35:34;10.47;;;5.27;;
9372;SDS011;10838;52.350;9.790;2023-04-25T01:38:00;10.67;;;5.30;;
9372;SDS011;10838;52.350;9.790;2023-04-25T01:40:28;11.27;;;5.00;;
9372;SDS011;10838;52.350;9.790;2023-04-25T01:42:56;12.23;;;5.20;;
9372;SDS011;10838;52.350;9.790;2023-04-25T01:45:22;8.17;;;4.70;;
9372;SDS011;10838;52.350;9.790;2023-04-25T01:47:49;13.00;;;5.17;;
9372;SDS011;10838;52.350;9.790;2023-04-25T01:50:16;14.50;;;5.90;;
9372;SDS011;10838;52.350;9.790;2023-04-25T01:52:44;8.93;;;5.40;;
9372;SDS011;10838;52.350;9.790;2023-04-25T01:55:10;13.67;;;5.30;;
9372;SDS011;10838;52.350;9.790;2023-04-25T01:57:38;11.27;;;5.73;;
9372;SDS011;10838;52.350;9.790;2023-04-25T02:00:06;9.07;;;5.17;;
9372;SDS011;10838;52.350;9.790;2023-04-25T02:02:33;9.70;;;5.50;;
9372;SDS011;10838;52.350;9.790;2023-04-25T02:05:00;8.00;;;5.17;;
9372;SDS011;10838;52.350;9.790;2023-04-25T02:07:27;12.53;;;6.20;;
9372;SDS011;10838;52.350;9.790;2023-04-25T02:09:53;11.23;;;5.50;;
9372;SDS011;10838;52.350;9.790;2023-04-25T02:12:20;10.57;;;5.20;;
9372;SDS011;10838;52.350;9.790;2023-04-25T02:14:48;11.73;;;4.80;;
9372;SDS011;10838;52.350;9.790;2023-04-25T02:17:14;10.03;;;5.20;;
9372;SDS011;10838;52.350;9.790;2023-04-25T02:19:42;9.37;;;5.10;;
9372;SDS011;10838;52.350;9.790;2023-04-25T02:22:08;16.30;;;5.10;;
9372;SDS011;10838;52.350;9.790;2023-04-25T02:24:35;7.57;;;4.57;;
9372;SDS011;10838;52.350;9.790;2023-04-25T02:27:02;10.47;;;4.90;;
9372;SDS011;10838;52.350;9.790;2023-04-25T02:29:28;6.30;;;4.60;;
9372;SDS011;10838;52.350;9.790;2023-04-25T02:31:57;8.13;;;3.83;;
9372;SDS011;10838;52.350;9.790;2023-04-25T02:34:23;7.33;;;4.30;;
9372;SDS011;10838;52.350;9.790;2023-04-25T02:36:50;10.63;;;4.43;;
9372;SDS011;10838;52.350;9.790;2023-04-25T02:39:16;7.80;;;4.27;;
9372;SDS011;10838;52.350;9.790;2023-04-25T02:41:43;12.00;;;4.07;;
9372;SDS011;10838;52.350;9.790;2023-04-25T02:44:10;10.43;;;3.50;;
9372;SDS011;10838;52.350;9.790;2023-04-25T02:46:36;11.03;;;3.87;;
9372;SDS011;10838;52.350;9.790;2023-04-25T02:49:04;10.63;;;3.67;;
9372;SDS011;10838;52.350;9.790;2023-04-25T02:51:31;18.03;;;3.47;;
9372;SDS011;10838;52.350;9.790;2023-04-25T02:53:58;15.47;;;3.63;;
9372;SDS011;10838;52.350;9.790;2023-04-25T02:56:24;8.57;;;4.00;;
9372;SDS011;10838;52.350;9.790;2023-04-25T02:58:52;16.30;;;3.70;;
9372;SDS011;10838;52.350;9.790;2023-04-25T03:01:18;15.47;;;3.70;;
9372;SDS011;10838;52.350;9.790;2023-04-25T03:03:45;16.60;;;3.93;;
9372;SDS011;10838;52.350;9.790;2023-04-25T03:06:13;14.97;;;3.80;;
9372;SDS011;10838;52.350;9.790;2023-04-25T03:08:39;16.37;;;3.70;;
9372;SDS011;10838;52.350;9.790;2023-04-25T03:11:06;12.90;;;3.70;;
9372;SDS011;10838;52.350;9.790;2023-04-25T03:13:32;16.87;;;4.10;;
9372;SDS011;10838;52.350;9.790;2023-04-25T03:15:59;21.33;;;4.03;;
9372;SDS011;10838;52.350;9.790;2023-04-25T03:18:26;17.33;;;4.23;;
9372;SDS011;10838;52.350;9.790;2023-04-25T03:20:52;21.70;;;3.80;;
9372;SDS011;10838;52.350;9.790;2023-04-25T03:23:20;15.13;;;3.60;;
9372;SDS011;10838;52.350;9.790;2023-04-25T03:25:47;13.53;;;3.30;;
9372;SDS011;10838;52.350;9.790;2023-04-25T03:28:14;19.90;;;3.67;;
9372;SDS011;10838;52.350;9.790;2023-04-25T03:30:40;13.03;;;3.57;;
9372;SDS011;10838;52.350;9.790;2023-04-25T03:33:07;13.23;;;4.10;;
9372;SDS011;10838;52.350;9.790;2023-04-25T03:35:33;12.63;;;3.60;;
9372;SDS011;10838;52.350;9.790;2023-04-25T03:38:00;13.60;;;3.37;;
9372;SDS011;10838;52.350;9.790;2023-04-25T03:40:28;17.87;;;3.97;;
9372;SDS011;10838;52.350;9.790;2023-04-25T03:42:54;16.83;;;4.00;;
9372;SDS011;10838;52.350;9.790;2023-04-25T03:45:21;15.63;;;4.00;;
9372;SDS011;10838;52.350;9.790;2023-04-25T03:47:47;14.23;;;3.80;;
9372;SDS011;10838;52.350;9.790;2023-04-25T03:50:14;16.47;;;4.10;;
9372;SDS011;10838;52.350;9.790;2023-04-25T03:52:42;18.73;;;3.87;;
9372;SDS011;10838;52.350;9.790;2023-04-25T03:55:09;17.83;;;3.83;;
9372;SDS011;10838;52.350;9.790;2023-04-25T03:57:37;15.33;;;4.17;;
9372;SDS011;10838;52.350;9.790;2023-04-25T04:00:04;17.10;;;4.13;;
9372;SDS011;10838;52.350;9.790;2023-04-25T04:02:31;15.93;;;3.80;;
9372;SDS011;10838;52.350;9.790;2023-04-25T04:04:59;16.97;;;4.57;;
9372;SDS011;10838;52.350;9.790;2023-04-25T04:07:26;12.47;;;3.83;;
9372;SDS011;10838;52.350;9.790;2023-04-25T04:09:53;18.60;;;4.33;;
9372;SDS011;10838;52.350;9.790;2023-04-25T04:12:19;15.97;;;3.90;;
9372;SDS011;10838;52.350;9.790;2023-04-25T04:14:47;12.30;;;3.43;;
9372;SDS011;10838;52.350;9.790;2023-04-25T04:17:13;18.60;;;3.90;;
9372;SDS011;10838;52.350;9.790;2023-04-25T04:19:40;15.77;;;4.17;;
9372;SDS011;10838;52.350;9.790;2023-04-25T04:22:07;13.80;;;4.43;;
9372;SDS011;10838;52.350;9.790;2023-04-25T04:24:33;17.40;;;3.90;;
9372;SDS011;10838;52.350;9.790;2023-04-25T04:27:00;21.07;;;4.07;;
9372;SDS011;10838;52.350;9.790;2023-04-25T04:29:28;15.33;;;3.83;;
9372;SDS011;10838;52.350;9.790;2023-04-25T04:31:56;17.77;;;3.77;;
9372;SDS011;10838;52.350;9.790;2023-04-25T04:34:22;16.10;;;3.50;;
9372;SDS011;10838;52.350;9.790;2023-04-25T04:36:50;13.97;;;4.00;;
9372;SDS011;10838;52.350;9.790;2023-04-25T04:39:17;15.30;;;3.70;;
9372;SDS011;10838;52.350;9.790;2023-04-25T04:41:43;15.33;;;3.53;;
9372;SDS011;10838;52.350;9.790;2023-04-25T04:44:10;23.20;;;4.40;;
9372;SDS011;10838;52.350;9.790;2023-04-25T04:46:37;21.10;;;4.53;;
9372;SDS011;10838;52.350;9.790;2023-04-25T04:49:08;15.77;;;3.33;;
9372;SDS011;10838;52.350;9.790;2023-04-25T04:51:34;17.10;;;4.60;;
9372;SDS011;10838;52.350;9.790;2023-04-25T04:54:01;23.27;;;4.30;;
9372;SDS011;10838;52.350;9.790;2023-04-25T04:56:28;21.00;;;3.90;;
9372;SDS011;10838;52.350;9.790;2023-04-25T04:58:56;12.07;;;3.87;;
9372;SDS011;10838;52.350;9.790;2023-04-25T05:01:23;21.10;;;3.93;;
9372;SDS011;10838;52.350;9.790;2023-04-25T05:03:51;18.83;;;4.00;;
9372;SDS011;10838;52.350;9.790;2023-04-25T05:06:19;25.43;;;4.67;;
9372;SDS011;10838;52.350;9.790;2023-04-25T05:08:45;17.10;;;3.87;;
9372;SDS011;10838;52.350;9.790;2023-04-25T05:11:12;12.93;;;3.70;;
9372;SDS011;10838;52.350;9.790;2023-04-25T05:13:38;16.03;;;4.00;;
9372;SDS011;10838;52.350;9.790;2023-04-25T05:16:05;17.57;;;3.80;;
9372;SDS011;10838;52.350;9.790;2023-04-25T05:18:32;16.87;;;4.30;;
9372;SDS011;10838;52.350;9.790;2023-04-25T05:20:58;29.10;;;5.27;;
9372;SDS011;10838;52.350;9.790;2023-04-25T05:23:26;25.10;;;4.27;;
9372;SDS011;10838;52.350;9.790;2023-04-25T05:25:55;23.70;;;5.03;;
9372;SDS011;10838;52.350;9.790;2023-04-25T05:28:22;20.10;;;5.00;;
9372;SDS011;10838;52.350;9.790;2023-04-25T05:30:48;11.63;;;4.10;;
9372;SDS011;10838;52.350;9.790;2023-04-25T05:33:15;19.90;;;4.07;;
9372;SDS011;10838;52.350;9.790;2023-04-25T05:35:42;12.23;;;3.97;;
9372;SDS011;10838;52.350;9.790;2023-04-25T05:38:08;19.10;;;3.93;;
9372;SDS011;10838;52.350;9.790;2023-04-25T05:40:36;14.17;;;4.00;;
9372;SDS011;10838;52.350;9.790;2023-04-25T05:43:03;14.97;;;3.70;;
9372;SDS011;10838;52.350;9.790;2023-04-25T05:45:30;16.60;;;3.90;;
9372;SDS011;10838;52.350;9.790;2023-04-25T05:47:56;21.03;;;3.83;;
9372;SDS011;10838;52.350;9.790;2023-04-25T05:50:23;13.50;;;3.47;;
9372;SDS011;10838;52.350;9.790;2023-04-25T05:52:50;18.20;;;3.63;;
9372;SDS011;10838;52.350;9.790;2023-04-25T05:55:16;18.27;;;3.47;;
9372;SDS011;10838;52.350;9.790;2023-04-25T05:57:44;12.87;;;3.97;;
9372;SDS011;10838;52.350;9.790;2023-04-25T06:00:11;14.07;;;3.33;;
9372;SDS011;10838;52.350;9.790;2023-04-25T06:02:40;14.20;;;3.90;;
9372;SDS011;10838;52.350;9.790;2023-04-25T06:05:07;25.53;;;4.73;;
9372;SDS011;10838;52.350;9.790;2023-04-25T06:07:34;13.20;;;3.07;;
9372;SDS011;10838;52.350;9.790;2023-04-25T06:10:01;24.40;;;3.70;;
9372;SDS011;10838;52.350;9.790;2023-04-25T06:12:31;15.47;;;3.30;;
9372;SDS011;10838;52.350;9.790;2023-04-25T06:14:59;18.67;;;3.40;;
9372;SDS011;10838;52.350;9.790;2023-04-25T06:17:25;16.00;;;3.73;;
9372;SDS011;10838;52.350;9.790;2023-04-25T06:19:52;14.87;;;3.27;;
9372;SDS011;10838;52.350;9.790;2023-04-25T06:22:18;23.70;;;5.53;;
9372;SDS011;10838;52.350;9.790;2023-04-25T06:24:45;16.70;;;4.13;;
9372;SDS011;10838;52.350;9.790;2023-04-25T06:27:11;11.13;;;4.07;;
9372;SDS011;10838;52.350;9.790;2023-04-25T06:29:38;19.47;;;3.70;;
9372;SDS011;10838;52.350;9.790;2023-04-25T06:32:06;17.47;;;4.17;;
9372;SDS011;10838;52.350;9.790;2023-04-25T06:34:33;17.80;;;4.00;;
9372;SDS011;10838;52.350;9.790;2023-04-25T06:36:59;20.03;;;4.23;;
9372;SDS011;10838;52.350;9.790;2023-04-25T06:39:26;14.20;;;3.47;;
9372;SDS011;10838;52.350;9.790;2023-04-25T06:41:52;14.87;;;3.27;;
9372;SDS011;10838;52.350;9.790;2023-04-25T06:44:19;17.33;;;4.00;;
9372;SDS011;10838;52.350;9.790;2023-04-25T06:46:48;15.00;;;3.57;;
9372;SDS011;10838;52.350;9.790;2023-04-25T06:49:16;11.03;;;2.90;;
9372;SDS011;10838;52.350;9.790;2023-04-25T06:51:42;17.13;;;3.73;;
9372;SDS011;10838;52.350;9.790;2023-04-25T06:54:09;15.23;;;3.87;;
9372;SDS011;10838;52.350;9.790;2023-04-25T06:56:35;13.53;;;3.17;;
9372;SDS011;10838;52.350;9.790;2023-04-25T06:59:02;11.90;;;3.47;;
9372;SDS011;10838;52.350;9.790;2023-04-25T07:01:29;17.60;;;3.40;;
9372;SDS011;10838;52.350;9.790;2023-04-25T07:03:55;12.73;;;3.23;;
9372;SDS011;10838;52.350;9.790;2023-04-25T07:06:23;11.53;;;3.20;;
9372;SDS011;10838;52.350;9.790;2023-04-25T07:08:51;16.47;;;4.60;;
9372;SDS011;10838;52.350;9.790;2023-04-25T07:11:18;15.83;;;3.63;;
9372;SDS011;10838;52.350;9.790;2023-04-25T07:13:45;11.67;;;3.17;;
9372;SDS011;10838;52.350;9.790;2023-04-25T07:16:11;12.47;;;3.07;;
9372;SDS011;10838;52.350;9.790;2023-04-25T07:18:38;15.00;;;3.13;;
9372;SDS011;10838;52.350;9.790;2023-04-25T07:21:04;14.07;;;3.33;;
9372;SDS011;10838;52.350;9.790;2023-04-25T07:23:32;21.40;;;3.13;;
9372;SDS011;10838;52.350;9.790;2023-04-25T07:25:59;18.23;;;3.23;;
9372;SDS011;10838;52.350;9.790;2023-04-25T07:28:25;12.57;;;3.13;;
9372;SDS011;10838;52.350;9.790;2023-04-25T07:30:52;13.17;;;3.30;;
9372;SDS011;10838;52.350;9.790;2023-04-25T07:33:18;13.10;;;3.40;;
9372;SDS011;10838;52.350;9.790;2023-04-25T07:35:46;17.27;;;4.17;;
9372;SDS011;10838;52.350;9.790;2023-04-25T07:38:12;14.37;;;2.77;;
9372;SDS011;10838;52.350;9.790;2023-04-25T07:40:40;11.97;;;2.80;;
9372;SDS011;10838;52.350;9.790;2023-04-25T07:43:07;9.57;;;3.03;;
9372;SDS011;10838;52.350;9.790;2023-04-25T07:45:33;14.43;;;2.63;;
9372;SDS011;10838;52.350;9.790;2023-04-25T07:48:00;13.63;;;3.60;;
9372;SDS011;10838;52.350;9.790;2023-04-25T07:50:27;10.27;;;2.83;;
9372;SDS011;10838;52.350;9.790;2023-04-25T07:52:54;12.73;;;3.00;;
9372;SDS011;10838;52.350;9.790;2023-04-25T07:55:21;13.90;;;3.10;;
9372;SDS011;10838;52.350;9.790;2023-04-25T07:57:48;14.10;;;3.20;;
9372;SDS011;10838;52.350;9.790;2023-04-25T08:00:15;10.20;;;2.60;;
9372;SDS011;10838;52.350;9.790;2023-04-25T08:02:42;9.20;;;2.20;;
9372;SDS011;10838;52.350;9.790;2023-04-25T08:05:09;8.43;;;2.57;;
9372;SDS011;10838;52.350;9.790;2023-04-25T08:07:39;8.73;;;2.67;;
9372;SDS011;10838;52.350;9.790;2023-04-25T08:10:06;8.43;;;2.47;;
9372;SDS011;10838;52.350;9.790;2023-04-25T08:12:33;7.40;;;2.40;;
9372;SDS011;10838;52.350;9.790;2023-04-25T08:15:01;10.30;;;2.67;;
9372;SDS011;10838;52.350;9.790;2023-04-25T08:17:29;10.33;;;2.93;;
9372;SDS011;10838;52.350;9.790;2023-04-25T08:19:56;12.77;;;3.13;;
9372;SDS011;10838;52.350;9.790;2023-04-25T08:22:22;8.23;;;2.70;;
9372;SDS011;10838;52.350;9.790;2023-04-25T08:24:49;8.13;;;2.70;;
9372;SDS011;10838;52.350;9.790;2023-04-25T08:27:16;8.57;;;2.37;;
9372;SDS011;10838;52.350;9.790;2023-04-25T08:29:43;8.70;;;2.70;;
9372;SDS011;10838;52.350;9.790;2023-04-25T08:32:11;8.63;;;2.80;;
9372;SDS011;10838;52.350;9.790;2023-04-25T08:34:38;10.47;;;3.00;;
9372;SDS011;10838;52.350;9.790;2023-04-25T08:37:07;6.47;;;2.80;;
9372;SDS011;10838;52.350;9.790;2023-04-25T08:39:34;12.47;;;3.50;;
9372;SDS011;10838;52.350;9.790;2023-04-25T08:42:01;11.30;;;3.07;;
9372;SDS011;10838;52.350;9.790;2023-04-25T08:44:31;8.87;;;2.23;;
9372;SDS011;10838;52.350;9.790;2023-04-25T08:46:59;11.70;;;2.40;;
9372;SDS011;10838;52.350;9.790;2023-04-25T08:49:27;6.80;;;2.20;;
9372;SDS011;10838;52.350;9.790;2023-04-25T08:51:55;9.57;;;2.80;;
9372;SDS011;10838;52.350;9.790;2023-04-25T08:54:25;12.87;;;2.37;;
9372;SDS011;10838;52.350;9.790;2023-04-25T08:56:54;6.97;;;2.00;;
9372;SDS011;10838;52.350;9.790;2023-04-25T08:59:22;7.33;;;2.10;;
9372;SDS011;10838;52.350;9.790;2023-04-25T09:01:49;3.63;;;1.80;;
9372;SDS011;10838;52.350;9.790;2023-04-25T09:04:16;17.53;;;2.43;;
9372;SDS011;10838;52.350;9.790;2023-04-25T09:06:45;5.73;;;1.87;;
9372;SDS011;10838;52.350;9.790;2023-04-25T09:09:11;8.53;;;2.40;;
9372;SDS011;10838;52.350;9.790;2023-04-25T09:11:38;6.43;;;2.30;;
9372;SDS011;10838;52.350;9.790;2023-04-25T09:14:15;7.30;;;2.40;;
9372;SDS011;10838;52.350;9.790;2023-04-25T09:16:58;7.13;;;2.30;;
9372;SDS011;10838;52.350;9.790;2023-04-25T09:19:27;8.17;;;2.13;;
9372;SDS011;10838;52.350;9.790;2023-04-25T09:21:57;7.67;;;2.03;;
9372;SDS011;10838;52.350;9.790;2023-04-25T09:24:31;6.20;;;2.20;;
9372;SDS011;10838;52.350;9.790;2023-04-25T09:26:58;7.03;;;2.03;;
9372;SDS011;10838;52.350;9.790;2023-04-25T09:29:29;6.83;;;1.60;;
9372;SDS011;10838;52.350;9.790;2023-04-25T09:32:17;2.40;;;1.60;;
9372;SDS011;10838;52.350;9.790;2023-04-25T09:34:46;3.50;;;1.20;;
9372;SDS011;10838;52.350;9.790;2023-04-25T09:37:21;3.20;;;1.50;;
9372;SDS011;10838;52.350;9.790;2023-04-25T09:39:49;4.70;;;1.60;;
9372;SDS011;10838;52.350;9.790;2023-04-25T09:42:16;8.03;;;1.77;;
9372;SDS011;10838;52.350;9.790;2023-04-25T09:44:44;3.60;;;1.70;;
9372;SDS011;10838;52.350;9.790;2023-04-25T09:47:11;4.90;;;1.90;;
9372;SDS011;10838;52.350;9.790;2023-04-25T09:49:39;5.50;;;1.33;;
9372;SDS011;10838;52.350;9.790;2023-04-25T09:52:07;2.70;;;1.63;;
9372;SDS011;10838;52.350;9.790;2023-04-25T09:54:36;4.97;;;1.63;;
9372;SDS011;10838;52.350;9.790;2023-04-25T09:57:04;6.37;;;2.10;;
9372;SDS011;10838;52.350;9.790;2023-04-25T09:59:38;5.80;;;1.63;;
9372;SDS011;10838;52.350;9.790;2023-04-25T10:02:06;1.77;;;1.40;;
9372;SDS011;10838;52.350;9.790;2023-04-25T10:04:34;4.97;;;1.80;;
9372;SDS011;10838;52.350;9.790;2023-04-25T10:07:01;5.53;;;1.50;;
9372;SDS011;10838;52.350;9.790;2023-04-25T10:09:30;3.07;;;1.60;;
9372;SDS011;10838;52.350;9.790;2023-04-25T10:12:00;8.10;;;1.83;;
9372;SDS011;10838;52.350;9.790;2023-04-25T10:14:28;7.73;;;1.63;;
9372;SDS011;10838;52.350;9.790;2023-04-25T10:16:57;3.77;;;1.80;;
9372;SDS011;10838;52.350;9.790;2023-04-25T10:19:24;7.07;;;1.87;;
9372;SDS011;10838;52.350;9.790;2023-04-25T10:21:51;4.73;;;1.70;;
9372;SDS011;10838;52.350;9.790;2023-04-25T10:24:21;4.00;;;1.93;;
9372;SDS011;10838;52.350;9.790;2023-04-25T10:26:48;4.97;;;1.60;;
9372;SDS011;10838;52.350;9.790;2023-04-25T10:29:22;6.57;;;2.00;;
9372;SDS011;10838;52.350;9.790;2023-04-25T10:31:51;5.83;;;1.90;;
9372;SDS011;10838;52.350;9.790;2023-04-25T10:34:17;6.47;;;1.60;;
9372;SDS011;10838;52.350;9.790;2023-04-25T10:36:48;13.30;;;2.37;;
9372;SDS011;10838;52.350;9.790;2023-04-25T10:39:21;6.77;;;1.70;;
9372;SDS011;10838;52.350;9.790;2023-04-25T10:41:52;5.77;;;1.53;;
9372;SDS011;10838;52.350;9.790;2023-04-25T10:44:20;4.80;;;1.70;;
9372;SDS011;10838;52.350;9.790;2023-04-25T10:46:48;6.03;;;1.90;;
9372;SDS011;10838;52.350;9.790;2023-04-25T10:49:28;5.93;;;1.63;;
9372;SDS011;10838;52.350;9.790;2023-04-25T10:52:15;6.93;;;2.07;;
9372;SDS011;10838;52.350;9.790;2023-04-25T10:54:46;7.47;;;2.00;;
9372;SDS011;10838;52.350;9.790;2023-04-25T10:57:32;5.73;;;2.20;;
9372;SDS011;10838;52.350;9.790;2023-04-25T11:00:08;7.70;;;1.87;;
9372;SDS011;10838;52.350;9.790;2023-04-25T11:02:40;4.97;;;2.00;;
9372;SDS011;10838;52.350;9.790;2023-04-25T11:05:08;3.87;;;1.63;;
9372;SDS011;10838;52.350;9.790;2023-04-25T11:07:37;4.90;;;1.60;;
9372;SDS011;10838;52.350;9.790;2023-04-25T11:10:05;4.23;;;1.90;;
9372;SDS011;10838;52.350;9.790;2023-04-25T11:12:32;5.23;;;1.80;;
9372;SDS011;10838;52.350;9.790;2023-04-25T11:15:00;7.57;;;1.80;;
9372;SDS011;10838;52.350;9.790;2023-04-25T11:17:29;14.03;;;2.40;;
9372;SDS011;10838;52.350;9.790;2023-04-25T11:19:55;6.03;;;2.07;;
9372;SDS011;10838;52.350;9.790;2023-04-25T11:22:22;7.57;;;2.03;;
9372;SDS011;10838;52.350;9.790;2023-04-25T11:24:49;8.13;;;2.30;;
9372;SDS011;10838;52.350;9.790;2023-04-25T11:27:16;5.00;;;2.00;;
9372;SDS011;10838;52.350;9.790;2023-04-25T11:29:43;4.30;;;1.97;;
9372;SDS011;10838;52.350;9.790;2023-04-25T11:32:09;8.90;;;1.97;;
9372;SDS011;10838;52.350;9.790;2023-04-25T11:34:37;9.33;;;2.00;;
9372;SDS011;10838;52.350;9.790;2023-04-25T11:37:04;6.87;;;1.73;;
9372;SDS011;10838;52.350;9.790;2023-04-25T11:39:31;5.10;;;2.03;;
9372;SDS011;10838;52.350;9.790;2023-04-25T11:41:58;5.77;;;1.80;;
9372;SDS011;10838;52.350;9.790;2023-04-25T11:44:26;5.63;;;1.83;;
9372;SDS011;10838;52.350;9.790;2023-04-25T11:46:52;7.90;;;2.10;;
9372;SDS011;10838;52.350;9.790;2023-04-25T11:49:19;6.77;;;1.70;;
9372;SDS011;10838;52.350;9.790;2023-04-25T11:51:48;6.50;;;1.80;;
9372;SDS011;10838;52.350;9.790;2023-04-25T11:54:14;5.63;;;2.00;;
9372;SDS011;10838;52.350;9.790;2023-04-25T11:56:41;10.17;;;2.30;;
9372;SDS011;10838;52.350;9.790;2023-04-25T11:59:08;5.13;;;2.10;;
9372;SDS011;10838;52.350;9.790;2023-04-25T12:01:36;5.77;;;1.80;;
9372;SDS011;10838;52.350;9.790;2023-04-25T12:04:10;5.77;;;1.67;;
9372;SDS011;10838;52.350;9.790;2023-04-25T12:06:37;4.67;;;1.70;;
9372;SDS011;10838;52.350;9.790;2023-04-25T12:09:07;4.87;;;1.80;;
9372;SDS011;10838;52.350;9.790;2023-04-25T12:11:40;4.93;;;1.73;;
9372;SDS011;10838;52.350;9.790;2023-04-25T12:14:07;10.07;;;2.13;;
9372;SDS011;10838;52.350;9.790;2023-04-25T12:16:39;10.40;;;1.80;;
9372;SDS011;10838;52.350;9.790;2023-04-25T12:19:07;4.77;;;1.77;;
9372;SDS011;10838;52.350;9.790;2023-04-25T12:21:34;2.27;;;1.40;;
9372;SDS011;10838;52.350;9.790;2023-04-25T12:24:10;4.50;;;1.73;;
9372;SDS011;10838;52.350;9.790;2023-04-25T12:26:51;12.53;;;1.30;;
9372;SDS011;10838;52.350;9.790;2023-04-25T12:29:19;5.33;;;1.40;;
9372;SDS011;10838;52.350;9.790;2023-04-25T12:31:47;1.90;;;0.97;;
9372;SDS011;10838;52.350;9.790;2023-04-25T12:34:14;3.03;;;1.30;;
9372;SDS011;10838;52.350;9.790;2023-04-25T12:36:41;2.93;;;0.87;;
9372;SDS011;10838;52.350;9.790;2023-04-25T12:39:07;5.20;;;1.10;;
9372;SDS011;10838;52.350;9.790;2023-04-25T12:41:36;2.77;;;1.17;;
9372;SDS011;10838;52.350;9.790;2023-04-25T12:44:03;4.57;;;1.23;;
9372;SDS011;10838;52.350;9.790;2023-04-25T12:46:29;2.60;;;1.20;;
9372;SDS011;10838;52.350;9.790;2023-04-25T12:48:56;4.37;;;1.80;;
9372;SDS011;10838;52.350;9.790;2023-04-25T12:51:23;3.13;;;1.40;;
9372;SDS011;10838;52.350;9.790;2023-04-25T12:53:50;1.13;;;1.10;;
9372;SDS011;10838;52.350;9.790;2023-04-25T12:56:17;4.87;;;1.40;;
9372;SDS011;10838;52.350;9.790;2023-04-25T12:58:45;1.63;;;0.80;;
9372;SDS011;10838;52.350;9.790;2023-04-25T13:01:13;2.90;;;0.77;;
9372;SDS011;10838;52.350;9.790;2023-04-25T13:03:39;1.70;;;1.10;;
9372;SDS011;10838;52.350;9.790;2023-04-25T13:06:06;2.60;;;1.43;;
9372;SDS011;10838;52.350;9.790;2023-04-25T13:08:33;8.50;;;1.70;;
9372;SDS011;10838;52.350;9.790;2023-04-25T13:10:59;2.33;;;1.00;;
9372;SDS011;10838;52.350;9.790;2023-04-25T13:13:26;4.07;;;1.10;;
9372;SDS011;10838;52.350;9.790;2023-04-25T13:15:54;2.07;;;1.00;;
9372;SDS011;10838;52.350;9.790;2023-04-25T13:18:22;2.43;;;1.17;;
9372;SDS011;10838;52.350;9.790;2023-04-25T13:20:51;2.90;;;1.10;;
9372;SDS011;10838;52.350;9.790;2023-04-25T13:23:17;4.03;;;1.20;;
9372;SDS011;10838;52.350;9.790;2023-04-25T13:25:45;2.43;;;1.40;;
9372;SDS011;10838;52.350;9.790;2023-04-25T13:28:12;2.07;;;1.43;;
9372;SDS011;10838;52.350;9.790;2023-04-25T13:30:39;4.23;;;1.03;;
9372;SDS011;10838;52.350;9.790;2023-04-25T13:33:07;5.13;;;1.37;;
9372;SDS011;10838;52.350;9.790;2023-04-25T13:35:34;3.17;;;1.27;;
9372;SDS011;10838;52.350;9.790;2023-04-25T13:38:01;3.70;;;1.00;;
9372;SDS011;10838;52.350;9.790;2023-04-25T13:40:28;5.63;;;1.53;;
9372;SDS011;10838;52.350;9.790;2023-04-25T13:42:54;2.37;;;1.40;;
9372;SDS011;10838;52.350;9.790;2023-04-25T13:45:21;3.77;;;1.40;;
9372;SDS011;10838;52.350;9.790;2023-04-25T13:47:48;4.60;;;1.50;;
9372;SDS011;10838;52.350;9.790;2023-04-25T13:50:16;6.77;;;1.77;;
9372;SDS011;10838;52.350;9.790;2023-04-25T13:52:43;7.17;;;1.60;;
9372;SDS011;10838;52.350;9.790;2023-04-25T13:55:10;4.43;;;1.50;;
9372;SDS011;10838;52.350;9.790;2023-04-25T13:57:36;4.40;;;1.33;;
9372;SDS011;10838;52.350;9.790;2023-04-25T14:00:03;8.37;;;1.87;;
9372;SDS011;10838;52.350;9.790;2023-04-25T14:02:33;5.83;;;1.53;;
9372;SDS011;10838;52.350;9.790;2023-04-25T14:05:00;5.13;;;1.63;;
9372;SDS011;10838;52.350;9.790;2023-04-25T14:07:28;6.63;;;1.63;;
9372;SDS011;10838;52.350;9.790;2023-04-25T14:09:55;9.07;;;1.90;;
9372;SDS011;10838;52.350;9.790;2023-04-25T14:12:22;3.30;;;1.30;;
9372;SDS011;10838;52.350;9.790;2023-04-25T14:14:49;5.30;;;1.60;;
9372;SDS011;10838;52.350;9.790;2023-04-25T14:17:15;1.83;;;1.47;;
9372;SDS011;10838;52.350;9.790;2023-04-25T14:19:42;4.73;;;1.40;;
9372;SDS011;10838;52.350;9.790;2023-04-25T14:22:10;4.23;;;1.40;;
9372;SDS011;10838;52.350;9.790;2023-04-25T14:24:38;2.00;;;1.50;;
9372;SDS011;10838;52.350;9.790;2023-04-25T14:27:05;4.70;;;1.97;;
9372;SDS011;10838;52.350;9.790;2023-04-25T14:29:31;4.13;;;1.50;;
9372;SDS011;10838;52.350;9.790;2023-04-25T14:31:58;3.97;;;1.67;;
9372;SDS011;10838;52.350;9.790;2023-04-25T14:34:25;5.33;;;1.87;;
9372;SDS011;10838;52.350;9.790;2023-04-25T14:36:52;5.17;;;1.97;;
9372;SDS011;10838;52.350;9.790;2023-04-25T14:39:18;4.33;;;1.47;;
9372;SDS011;10838;52.350;9.790;2023-04-25T14:41:46;5.37;;;1.63;;
9372;SDS011;10838;52.350;9.790;2023-04-25T14:44:13;4.93;;;1.80;;
9372;SDS011;10838;52.350;9.790;2023-04-25T14:46:40;6.97;;;1.87;;
9372;SDS011;10838;52.350;9.790;2023-04-25T14:49:06;2.30;;;1.23;;
9372;SDS011;10838;52.350;9.790;2023-04-25T14:51:33;5.03;;;1.80;;
9372;SDS011;10838;52.350;9.790;2023-04-25T14:54:00;4.20;;;1.30;;
9372;SDS011;10838;52.350;9.790;2023-04-25T14:56:26;2.20;;;1.53;;
9372;SDS011;10838;52.350;9.790;2023-04-25T14:58:54;1.40;;;1.30;;